Time;durP1;ratioP1;P1;durP2;ratioP2;P2;SDS_P1;SDS_P2;PMS_P1;PMS_P2;Temp;Humidity;BMP_temperature;BMP_pressure;BME280_temperature;BME280_humidity;BME280_pressure;Samples;Min_cycle;Max_cycle;Signal;HPM_P1;HPM_P2
2022/11/30 00:00:53;;;;;;;16.10;10.20;;;;;;;;;;4987811;28;20054;-73
2022/11/30 00:03:20;;;;;;;16.50;10.98;;;;;;;;;;4987869;28;20394;-71
2022/11/30 00:05:48;;;;;;;16.92;12.25;;;;;;;;;;4960534;28;20054;-72
2022/11/30 00:08:15;;;;;;;16.55;11.85;;;;;;;;;;4986952;28;20402;-72
2022/11/30 00:10:43;;;;;;;18.85;12.15;;;;;;;;;;4992739;28;20391;-72
2022/11/30 00:13:11;;;;;;;15.15;10.40;;;;;;;;;;4993877;28;20042;-72
2022/11/30 00:15:38;;;;;;;16.50;10.23;;;;;;;;;;4972199;28;20469;-72
2022/11/30 00:18:07;;;;;;;15.98;10.30;;;;;;;;;;4988196;28;20043;-72
2022/11/30 00:20:35;;;;;;;16.08;11.02;;;;;;;;;;4991788;28;20050;-72
2022/11/30 00:23:02;;;;;;;15.32;10.90;;;;;;;;;;4973899;28;20057;-72
2022/11/30 00:25:30;;;;;;;16.80;11.73;;;;;;;;;;4990277;28;20050;-72
2022/11/30 00:28:00;;;;;;;19.42;12.05;;;;;;;;;;4983188;28;20035;-72
2022/11/30 00:30:27;;;;;;;14.68;10.43;;;;;;;;;;4987232;28;20080;-74
2022/11/30 00:32:58;;;;;;;15.07;9.93;;;;;;;;;;4974188;28;20050;-73
2022/11/30 00:35:25;;;;;;;15.23;9.43;;;;;;;;;;4975797;28;20066;-72
2022/11/30 00:37:53;;;;;;;15.85;10.77;;;;;;;;;;4978722;28;20097;-72
2022/11/30 00:40:21;;;;;;;13.98;9.65;;;;;;;;;;4990316;28;20434;-71
2022/11/30 00:42:49;;;;;;;15.35;9.60;;;;;;;;;;4968862;28;20499;-72
2022/11/30 00:45:16;;;;;;;15.77;9.90;;;;;;;;;;4978065;28;20054;-72
2022/11/30 00:47:44;;;;;;;13.05;9.63;;;;;;;;;;4990843;28;20498;-72
2022/11/30 00:50:11;;;;;;;15.57;10.27;;;;;;;;;;4991681;28;20038;-72
2022/11/30 00:52:39;;;;;;;13.48;9.68;;;;;;;;;;4971755;28;20079;-72
2022/11/30 00:55:07;;;;;;;14.40;10.00;;;;;;;;;;4979578;28;20051;-72
2022/11/30 00:57:34;;;;;;;15.05;9.95;;;;;;;;;;4991099;28;20054;-74
2022/11/30 01:00:03;;;;;;;14.00;9.45;;;;;;;;;;4990350;28;20077;-72
2022/11/30 01:02:30;;;;;;;14.93;9.85;;;;;;;;;;4970872;28;20503;-72
2022/11/30 01:04:57;;;;;;;13.38;8.98;;;;;;;;;;4976044;28;20043;-73
2022/11/30 01:07:25;;;;;;;12.88;9.13;;;;;;;;;;4970996;28;20058;-74
2022/11/30 01:09:52;;;;;;;17.48;11.25;;;;;;;;;;4989259;28;20556;-72
2022/11/30 01:12:20;;;;;;;15.23;10.07;;;;;;;;;;4959870;28;20046;-73
2022/11/30 01:14:47;;;;;;;14.25;10.10;;;;;;;;;;4955876;28;20100;-72
2022/11/30 01:17:15;;;;;;;15.73;10.02;;;;;;;;;;4970372;28;20117;-73
2022/11/30 01:19:42;;;;;;;13.70;8.88;;;;;;;;;;4981252;28;20043;-72
2022/11/30 01:22:10;;;;;;;16.10;10.95;;;;;;;;;;4987244;28;20042;-72
2022/11/30 01:24:37;;;;;;;17.65;11.23;;;;;;;;;;4987217;28;20141;-73
2022/11/30 01:27:04;;;;;;;15.35;10.45;;;;;;;;;;4989116;28;20043;-72
2022/11/30 01:29:32;;;;;;;14.60;9.82;;;;;;;;;;4986471;28;20050;-73
2022/11/30 01:31:59;;;;;;;17.38;11.27;;;;;;;;;;4985741;28;20057;-73
2022/11/30 01:34:26;;;;;;;24.55;10.82;;;;;;;;;;4971030;28;20038;-73
2022/11/30 01:36:54;;;;;;;19.77;10.77;;;;;;;;;;4980110;28;20057;-72
2022/11/30 01:39:21;;;;;;;14.60;10.63;;;;;;;;;;4969365;28;20052;-72
2022/11/30 01:41:48;;;;;;;13.50;9.25;;;;;;;;;;4970753;28;20045;-73
2022/11/30 01:44:16;;;;;;;14.98;10.68;;;;;;;;;;4984259;28;20038;-74
2022/11/30 01:46:57;;;;;;;19.67;12.05;;;;;;;;;;4981053;28;20092;-72
2022/11/30 01:49:37;;;;;;;16.02;11.10;;;;;;;;;;4985936;28;20402;-73
2022/11/30 01:52:31;;;;;;;16.40;11.00;;;;;;;;;;4983105;28;20045;-73
2022/11/30 01:55:02;;;;;;;17.48;10.73;;;;;;;;;;4984783;28;20592;-73
2022/11/30 01:57:34;;;;;;;14.70;8.73;;;;;;;;;;4963455;28;20125;-73
2022/11/30 02:00:01;;;;;;;;;;;;;;;;;;4990546;28;20444;-73
2022/11/30 02:02:39;;;;;;;18.88;10.55;;;;;;;;;;4977919;28;19930;-73
2022/11/30 02:05:08;;;;;;;17.58;10.70;;;;;;;;;;4950033;28;20047;-72
2022/11/30 02:07:35;;;;;;;17.15;11.23;;;;;;;;;;4987558;28;20046;-72
2022/11/30 02:10:03;;;;;;;15.05;9.93;;;;;;;;;;4962795;28;20058;-72
2022/11/30 02:12:44;;;;;;;16.58;9.25;;;;;;;;;;4950192;28;20470;-73
2022/11/30 02:15:15;;;;;;;16.38;10.10;;;;;;;;;;4968719;28;20067;-72
2022/11/30 02:17:49;;;;;;;19.15;11.85;;;;;;;;;;4988905;28;20057;-73
2022/11/30 02:20:25;;;;;;;13.95;9.48;;;;;;;;;;4967974;28;20035;-72
2022/11/30 02:23:05;;;;;;;13.02;9.07;;;;;;;;;;4982796;28;20046;-72
2022/11/30 02:25:39;;;;;;;16.83;8.88;;;;;;;;;;4982166;28;20133;-72
2022/11/30 02:28:34;;;;;;;15.98;10.23;;;;;;;;;;4976596;28;20129;-73
2022/11/30 02:31:04;;;;;;;14.75;9.43;;;;;;;;;;5011051;28;20143;-86
2022/11/30 02:33:40;;;;;;;16.48;10.45;;;;;;;;;;5002362;28;20068;-84
2022/11/30 02:36:15;;;;;;;15.50;9.80;;;;;;;;;;5000605;28;20510;-84
2022/11/30 02:38:54;;;;;;;16.27;9.82;;;;;;;;;;4982203;28;20430;-84
2022/11/30 02:41:23;;;;;;;17.00;9.80;;;;;;;;;;4990989;28;20451;-85
2022/11/30 02:44:09;;;;;;;21.10;11.85;;;;;;;;;;5012860;28;20042;-85
2022/11/30 02:46:52;;;;;;;14.88;9.82;;;;;;;;;;4986459;28;20171;-85
2022/11/30 02:49:40;;;;;;;14.60;9.52;;;;;;;;;;5004640;28;20129;-87
2022/11/30 02:52:18;;;;;;;19.10;10.32;;;;;;;;;;4978423;28;20450;-85
2022/11/30 02:54:50;;;;;;;15.63;9.85;;;;;;;;;;5013881;28;20045;-84
2022/11/30 02:57:22;;;;;;;14.77;10.27;;;;;;;;;;4979068;28;20093;-85
2022/11/30 03:00:00;;;;;;;12.98;8.73;;;;;;;;;;4998016;28;20030;-86
2022/11/30 03:02:30;;;;;;;14.32;9.45;;;;;;;;;;4987181;28;20049;-85
2022/11/30 03:04:59;;;;;;;16.73;10.80;;;;;;;;;;4983208;28;20485;-85
2022/11/30 03:07:33;;;;;;;15.07;10.40;;;;;;;;;;4957450;28;20052;-86
2022/11/30 03:10:04;;;;;;;15.82;9.40;;;;;;;;;;4983127;28;20427;-85
2022/11/30 03:12:36;;;;;;;20.33;12.85;;;;;;;;;;4996468;28;20480;-86
2022/11/30 03:15:07;;;;;;;16.55;11.23;;;;;;;;;;5014472;28;20052;-87
2022/11/30 03:17:37;;;;;;;15.48;11.40;;;;;;;;;;4993752;28;20454;-86
2022/11/30 03:20:12;;;;;;;16.85;10.40;;;;;;;;;;4999123;28;20046;-85
2022/11/30 03:22:42;;;;;;;13.63;10.23;;;;;;;;;;5022635;28;20048;-85
2022/11/30 03:25:14;;;;;;;13.68;8.50;;;;;;;;;;4978919;28;20096;-84
2022/11/30 03:27:55;;;;;;;16.65;10.68;;;;;;;;;;5015620;28;20052;-84
2022/11/30 03:30:32;;;;;;;15.80;10.95;;;;;;;;;;4989515;28;20050;-86
2022/11/30 03:33:00;;;;;;;16.08;10.85;;;;;;;;;;4979027;28;20049;-87
2022/11/30 03:35:32;;;;;;;14.02;9.07;;;;;;;;;;4990847;28;20073;-85
2022/11/30 03:38:05;;;;;;;14.23;10.23;;;;;;;;;;5022149;28;20052;-85
2022/11/30 03:40:37;;;;;;;17.35;9.90;;;;;;;;;;5012233;28;20046;-86
2022/11/30 03:43:06;;;;;;;17.13;10.50;;;;;;;;;;5020473;28;20037;-85
2022/11/30 03:45:38;;;;;;;15.93;10.65;;;;;;;;;;5000800;28;20046;-85
2022/11/30 03:48:08;;;;;;;;;;;;;;;;;;4996269;28;20511;-86
2022/11/30 03:50:40;;;;;;;15.02;8.98;;;;;;;;;;5007341;28;19928;-85
2022/11/30 03:53:12;;;;;;;17.02;9.95;;;;;;;;;;4980932;28;20492;-85
2022/11/30 03:55:56;;;;;;;20.70;12.05;;;;;;;;;;4978879;28;20042;-86
2022/11/30 03:58:41;;;;;;;24.08;13.80;;;;;;;;;;4976664;28;20069;-85
2022/11/30 04:02:07;;;;;;;19.42;11.65;;;;;;;;;;4981912;28;20070;-87
2022/11/30 04:04:36;;;;;;;25.00;12.15;;;;;;;;;;4980796;28;20053;-85
2022/11/30 04:07:06;;;;;;;23.50;12.50;;;;;;;;;;4975321;28;20073;-86
2022/11/30 04:09:34;;;;;;;18.98;12.07;;;;;;;;;;4983419;28;20045;-84
2022/11/30 04:12:02;;;;;;;20.95;13.00;;;;;;;;;;4987230;28;20089;-84
2022/11/30 04:14:36;;;;;;;15.40;10.70;;;;;;;;;;4994459;28;20064;-86
2022/11/30 04:17:12;;;;;;;18.65;11.80;;;;;;;;;;4979233;28;20053;-84
2022/11/30 04:20:45;;;;;;;22.15;12.50;;;;;;;;;;4970222;28;20432;-84
2022/11/30 04:23:15;;;;;;;22.98;11.55;;;;;;;;;;4980734;28;20518;-83
2022/11/30 04:25:48;;;;;;;19.58;11.43;;;;;;;;;;4982593;28;20053;-84
2022/11/30 04:28:20;;;;;;;16.27;9.70;;;;;;;;;;5012778;28;20053;-86
2022/11/30 04:30:48;;;;;;;25.75;11.07;;;;;;;;;;5005569;28;20048;-84
2022/11/30 04:33:16;;;;;;;24.23;12.90;;;;;;;;;;5030936;28;20525;-86
2022/11/30 04:35:53;;;;;;;17.08;11.05;;;;;;;;;;4971757;28;20507;-84
2022/11/30 04:38:29;;;;;;;17.98;10.65;;;;;;;;;;4979284;28;20566;-84
2022/11/30 04:41:14;;;;;;;20.45;12.07;;;;;;;;;;4966548;28;20069;-86
2022/11/30 04:43:47;;;;;;;16.23;11.05;;;;;;;;;;4986630;28;20053;-84
2022/11/30 04:46:18;;;;;;;16.40;10.38;;;;;;;;;;4981283;28;20044;-84
2022/11/30 04:48:49;;;;;;;15.85;10.80;;;;;;;;;;4982331;28;20042;-83
2022/11/30 04:51:22;;;;;;;15.88;9.45;;;;;;;;;;4982353;28;20076;-84
2022/11/30 04:53:56;;;;;;;13.95;9.43;;;;;;;;;;5010982;28;20046;-84
2022/11/30 04:56:23;;;;;;;16.30;11.20;;;;;;;;;;5012739;28;20069;-84
2022/11/30 04:58:52;;;;;;;13.70;9.07;;;;;;;;;;4980831;28;20065;-84
2022/11/30 05:01:22;;;;;;;17.23;10.55;;;;;;;;;;4993872;28;20042;-84
2022/11/30 05:03:49;;;;;;;13.77;8.65;;;;;;;;;;4997560;28;20104;-85
2022/11/30 05:06:17;;;;;;;15.50;10.98;;;;;;;;;;4997491;28;20052;-85
2022/11/30 05:08:52;;;;;;;17.88;10.93;;;;;;;;;;5010925;28;20049;-84
2022/11/30 05:11:19;;;;;;;15.35;9.65;;;;;;;;;;4977859;28;20074;-84
2022/11/30 05:13:52;;;;;;;23.02;14.13;;;;;;;;;;5001795;28;20052;-84
2022/11/30 05:16:20;;;;;;;17.95;11.93;;;;;;;;;;5021963;28;20064;-84
2022/11/30 05:18:48;;;;;;;19.52;12.40;;;;;;;;;;4997029;28;20107;-85
2022/11/30 05:21:20;;;;;;;16.65;10.75;;;;;;;;;;5013459;28;20059;-83
2022/11/30 05:23:51;;;;;;;19.98;12.98;;;;;;;;;;4997562;28;20049;-84
2022/11/30 05:26:18;;;;;;;24.90;14.60;;;;;;;;;;4990242;28;20046;-84
2022/11/30 05:28:48;;;;;;;21.67;13.30;;;;;;;;;;4977679;28;20060;-84
2022/11/30 05:31:27;;;;;;;18.27;11.50;;;;;;;;;;5016506;28;20519;-84
2022/11/30 05:34:01;;;;;;;22.25;12.57;;;;;;;;;;4981840;28;20131;-84
2022/11/30 05:36:51;;;;;;;21.23;13.40;;;;;;;;;;5023010;28;20116;-84
2022/11/30 05:39:36;;;;;;;20.70;12.18;;;;;;;;;;4963858;28;20064;-84
2022/11/30 05:42:13;;;;;;;22.95;13.18;;;;;;;;;;4988593;28;20038;-83
2022/11/30 05:44:40;;;;;;;18.67;11.85;;;;;;;;;;4959638;28;20037;-84
2022/11/30 05:47:10;;;;;;;21.73;13.40;;;;;;;;;;4979338;28;20034;-84
2022/11/30 05:49:40;;;;;;;21.33;13.23;;;;;;;;;;4996937;28;20092;-85
2022/11/30 05:52:11;;;;;;;19.52;12.30;;;;;;;;;;4975523;28;20042;-85
2022/11/30 05:54:48;;;;;;;19.20;11.68;;;;;;;;;;4996051;28;20136;-83
2022/11/30 05:57:19;;;;;;;20.55;13.55;;;;;;;;;;4997419;28;20048;-84
2022/11/30 06:00:00;;;;;;;19.23;12.15;;;;;;;;;;5015605;28;20066;-84
2022/11/30 06:02:38;;;;;;;25.05;13.63;;;;;;;;;;4988293;28;20037;-83
2022/11/30 06:05:08;;;;;;;18.88;11.70;;;;;;;;;;4995771;28;20051;-84
2022/11/30 06:07:39;;;;;;;21.23;12.30;;;;;;;;;;5029405;28;20060;-85
2022/11/30 06:10:10;;;;;;;20.30;11.65;;;;;;;;;;4973392;28;20057;-86
2022/11/30 06:12:42;;;;;;;17.77;12.25;;;;;;;;;;5014406;28;20063;-84
2022/11/30 06:15:14;;;;;;;21.25;12.73;;;;;;;;;;5024330;28;20037;-85
2022/11/30 06:17:45;;;;;;;23.75;13.35;;;;;;;;;;5012673;28;20046;-86
2022/11/30 06:20:15;;;;;;;21.38;12.43;;;;;;;;;;5010826;28;20068;-84
2022/11/30 06:22:47;;;;;;;18.83;12.88;;;;;;;;;;4971176;28;20046;-87
2022/11/30 06:25:21;;;;;;;19.10;12.05;;;;;;;;;;4983000;28;20407;-86
2022/11/30 06:27:53;;;;;;;17.88;11.02;;;;;;;;;;5013190;28;20111;-86
2022/11/30 06:30:39;;;;;;;22.85;12.77;;;;;;;;;;4980948;28;20092;-85
2022/11/30 06:33:14;;;;;;;15.88;11.00;;;;;;;;;;5010829;28;20049;-84
2022/11/30 06:39:52;;;;;;;19.98;12.90;;;;;;;;;;4984439;28;20362;-84
2022/11/30 06:42:44;;;;;;;19.95;12.70;;;;;;;;;;4981517;28;20077;-85
2022/11/30 06:45:12;;;;;;;15.73;9.75;;;;;;;;;;4964409;28;20049;-83
2022/11/30 06:47:46;;;;;;;14.13;9.68;;;;;;;;;;4976861;28;20042;-85
2022/11/30 06:50:13;;;;;;;19.63;12.18;;;;;;;;;;4974789;28;20216;-86
2022/11/30 06:52:44;;;;;;;18.92;12.10;;;;;;;;;;5014188;28;20434;-84
2022/11/30 06:55:13;;;;;;;16.83;12.23;;;;;;;;;;5004516;28;20483;-84
2022/11/30 06:57:40;;;;;;;16.23;11.20;;;;;;;;;;4991107;28;20504;-85
2022/11/30 07:00:22;;;;;;;17.35;12.40;;;;;;;;;;5016435;28;20450;-84
2022/11/30 07:03:23;;;;;;;15.90;10.27;;;;;;;;;;4994533;28;20042;-88
2022/11/30 07:06:28;;;;;;;;;;;;;;;;;;;;;
2022/11/30 07:09:13;;;;;;;19.73;13.05;;;;;;;;;;5000117;28;20113;-85
2022/11/30 07:11:48;;;;;;;17.15;11.90;;;;;;;;;;4989910;28;20377;-86
2022/11/30 07:14:25;;;;;;;15.57;11.32;;;;;;;;;;4955722;28;20145;-88
2022/11/30 07:17:23;;;;;;;20.75;12.90;;;;;;;;;;4964944;28;20391;-84
2022/11/30 07:20:24;;;;;;;25.00;16.90;;;;;;;;;;4990207;28;20058;-86
2022/11/30 07:22:54;;;;;;;20.88;13.98;;;;;;;;;;4972233;28;20329;-85
2022/11/30 07:28:25;;;;;;;16.58;11.10;;;;;;;;;;4981577;28;20082;-86
2022/11/30 07:30:54;;;;;;;18.50;12.55;;;;;;;;;;5005706;28;20550;-85
2022/11/30 07:33:22;;;;;;;19.02;12.38;;;;;;;;;;5014204;28;20084;-85
2022/11/30 07:35:57;;;;;;;18.30;12.10;;;;;;;;;;4981837;28;20053;-85
2022/11/30 07:38:26;;;;;;;23.13;13.68;;;;;;;;;;4965887;28;20046;-85
2022/11/30 07:40:56;;;;;;;20.77;13.35;;;;;;;;;;4996909;28;20057;-85
2022/11/30 07:43:27;;;;;;;21.15;12.68;;;;;;;;;;4997656;28;20041;-85
2022/11/30 07:46:03;;;;;;;22.10;13.18;;;;;;;;;;4979739;28;20100;-85
2022/11/30 07:48:45;;;;;;;24.35;14.93;;;;;;;;;;4992856;28;20038;-85
2022/11/30 07:51:16;;;;;;;20.77;13.35;;;;;;;;;;4994578;28;20046;-85
2022/11/30 07:53:48;;;;;;;21.88;14.18;;;;;;;;;;4966707;28;20066;-85
2022/11/30 07:56:26;;;;;;;29.70;16.45;;;;;;;;;;4973028;28;20045;-86
2022/11/30 07:58:56;;;;;;;30.08;15.18;;;;;;;;;;4945301;28;20046;-85
2022/11/30 08:01:36;;;;;;;24.05;14.70;;;;;;;;;;4975840;28;20467;-86
2022/11/30 08:04:17;;;;;;;20.38;13.90;;;;;;;;;;4966430;28;20049;-85
2022/11/30 08:07:05;;;;;;;22.08;14.35;;;;;;;;;;4982966;28;20208;-86
2022/11/30 08:09:44;;;;;;;23.73;14.45;;;;;;;;;;4970919;28;20412;-85
2022/11/30 08:12:11;;;;;;;24.80;14.05;;;;;;;;;;4983304;28;20049;-86
2022/11/30 08:14:42;;;;;;;23.02;14.75;;;;;;;;;;4985913;28;20041;-84
2022/11/30 08:17:30;;;;;;;22.17;15.10;;;;;;;;;;4992963;28;20156;-87
2022/11/30 08:20:18;;;;;;;21.20;13.95;;;;;;;;;;4999190;28;20050;-85
2022/11/30 08:22:57;;;;;;;24.10;15.55;;;;;;;;;;5000954;28;20044;-84
2022/11/30 08:25:51;;;;;;;20.58;13.25;;;;;;;;;;4985333;28;20046;-84
2022/11/30 08:28:28;;;;;;;;;;;;;;;;;;4974287;28;20562;-84
2022/11/30 08:34:00;;;;;;;25.25;14.82;;;;;;;;;;5039587;28;20111;-72
2022/11/30 08:36:28;;;;;;;22.13;14.02;;;;;;;;;;5027924;28;20116;-73
2022/11/30 08:38:59;;;;;;;24.38;16.10;;;;;;;;;;5029933;28;20512;-72
2022/11/30 08:41:27;;;;;;;22.40;14.48;;;;;;;;;;5009386;28;20037;-72
2022/11/30 08:43:55;;;;;;;21.20;13.75;;;;;;;;;;5022716;28;20037;-74
2022/11/30 08:46:23;;;;;;;23.88;14.63;;;;;;;;;;5021324;28;20063;-73
2022/11/30 08:49:10;;;;;;;22.00;14.45;;;;;;;;;;5024325;28;20041;-73
2022/11/30 08:51:49;;;;;;;19.50;13.95;;;;;;;;;;5024063;28;20041;-72
2022/11/30 08:54:38;;;;;;;20.55;12.27;;;;;;;;;;5023845;28;20049;-72
2022/11/30 08:57:06;;;;;;;23.65;14.13;;;;;;;;;;5029379;28;20513;-72
2022/11/30 08:59:33;;;;;;;21.60;14.55;;;;;;;;;;5025496;28;20175;-73
2022/11/30 09:02:01;;;;;;;20.95;14.25;;;;;;;;;;5010316;28;20042;-74
2022/11/30 09:04:28;;;;;;;23.23;14.52;;;;;;;;;;5028298;28;20099;-73
2022/11/30 09:06:57;;;;;;;23.60;14.80;;;;;;;;;;5031069;28;20038;-74
2022/11/30 09:09:25;;;;;;;23.20;14.93;;;;;;;;;;5011081;28;20524;-73
2022/11/30 09:11:53;;;;;;;22.15;15.13;;;;;;;;;;5026575;28;20532;-72
2022/11/30 09:14:20;;;;;;;21.65;14.05;;;;;;;;;;5028194;28;20037;-73
2022/11/30 09:16:48;;;;;;;23.27;15.93;;;;;;;;;;5029142;28;20257;-73
2022/11/30 09:19:15;;;;;;;23.58;16.10;;;;;;;;;;5029077;28;20068;-73
2022/11/30 09:21:43;;;;;;;22.13;14.20;;;;;;;;;;5028378;28;20075;-72
2022/11/30 09:24:18;;;;;;;19.38;14.48;;;;;;;;;;5026065;28;20033;-72
2022/11/30 09:26:45;;;;;;;21.35;13.93;;;;;;;;;;5028372;28;20489;-72
2022/11/30 09:29:12;;;;;;;22.58;14.00;;;;;;;;;;5028927;28;20509;-74
2022/11/30 09:31:40;;;;;;;23.15;15.18;;;;;;;;;;5007462;28;20152;-73
2022/11/30 09:34:10;;;;;;;25.73;15.07;;;;;;;;;;5026231;28;20203;-73
2022/11/30 09:36:37;;;;;;;20.48;13.55;;;;;;;;;;5004844;28;20564;-73
2022/11/30 09:39:05;;;;;;;22.65;15.05;;;;;;;;;;5024507;28;20455;-73
2022/11/30 09:41:52;;;;;;;20.83;14.77;;;;;;;;;;5005747;28;20135;-73
2022/11/30 09:44:42;;;;;;;20.73;15.07;;;;;;;;;;5027318;28;20037;-73
2022/11/30 09:47:11;;;;;;;21.70;14.73;;;;;;;;;;5026860;28;20136;-73
2022/11/30 09:49:45;;;;;;;23.98;16.27;;;;;;;;;;5028203;28;20084;-72
2022/11/30 09:52:17;;;;;;;22.73;14.73;;;;;;;;;;5028306;28;20303;-73
2022/11/30 09:54:46;;;;;;;22.10;15.57;;;;;;;;;;5028341;28;20539;-73
2022/11/30 09:57:14;;;;;;;20.27;14.50;;;;;;;;;;5010622;28;20485;-73
2022/11/30 09:59:44;;;;;;;21.15;14.77;;;;;;;;;;5027970;28;20049;-74
2022/11/30 10:02:16;;;;;;;21.23;14.35;;;;;;;;;;5027663;28;20128;-72
2022/11/30 10:04:44;;;;;;;20.63;13.73;;;;;;;;;;5028149;28;20067;-73
2022/11/30 10:07:31;;;;;;;17.88;11.75;;;;;;;;;;5025751;28;20585;-73
2022/11/30 10:10:10;;;;;;;15.65;11.45;;;;;;;;;;5028362;28;20535;-73
2022/11/30 10:13:27;;;;;;;15.80;11.55;;;;;;;;;;5009519;28;20045;-73
2022/11/30 10:15:57;;;;;;;18.98;13.05;;;;;;;;;;4974167;28;20527;-73
2022/11/30 10:18:36;;;;;;;21.88;13.65;;;;;;;;;;5027897;28;20513;-73
2022/11/30 10:21:16;;;;;;;21.00;13.98;;;;;;;;;;5027620;28;20396;-73
2022/11/30 10:23:52;;;;;;;18.45;12.95;;;;;;;;;;5031616;28;20497;-73
2022/11/30 10:26:24;;;;;;;21.83;12.90;;;;;;;;;;5015710;28;20116;-72
2022/11/30 10:28:53;;;;;;;23.40;14.77;;;;;;;;;;5034166;28;20128;-72
2022/11/30 10:31:32;;;;;;;23.60;13.63;;;;;;;;;;5032691;28;20045;-72
2022/11/30 10:34:18;;;;;;;19.77;14.23;;;;;;;;;;5018314;28;20045;-73
2022/11/30 10:36:47;;;;;;;20.23;12.55;;;;;;;;;;5034339;28;20045;-72
2022/11/30 10:39:28;;;;;;;17.30;13.18;;;;;;;;;;5033996;28;20091;-72
2022/11/30 10:42:10;;;;;;;21.63;13.90;;;;;;;;;;5033536;28;20136;-73
2022/11/30 10:44:41;;;;;;;19.45;13.85;;;;;;;;;;5015874;28;20053;-73
2022/11/30 10:47:16;;;;;;;20.83;15.38;;;;;;;;;;5034305;28;20119;-73
2022/11/30 10:49:49;;;;;;;23.67;15.65;;;;;;;;;;5029846;28;20048;-71
2022/11/30 10:52:36;;;;;;;23.95;14.05;;;;;;;;;;5029300;28;20097;-73
2022/11/30 10:55:12;;;;;;;21.73;14.18;;;;;;;;;;5021846;28;20077;-75
2022/11/30 10:57:39;;;;;;;22.25;14.00;;;;;;;;;;5043059;28;20115;-77
2022/11/30 11:00:12;;;;;;;19.88;12.75;;;;;;;;;;5039173;28;20604;-73
2022/11/30 11:02:41;;;;;;;20.40;14.38;;;;;;;;;;5028909;28;20069;-73
2022/11/30 11:05:21;;;;;;;22.10;14.50;;;;;;;;;;5028000;28;20034;-72
2022/11/30 11:07:50;;;;;;;21.73;14.27;;;;;;;;;;5027128;28;20073;-73
2022/11/30 11:10:20;;;;;;;26.80;17.38;;;;;;;;;;5027375;28;20044;-73
2022/11/30 11:12:51;;;;;;;25.30;16.95;;;;;;;;;;5027352;28;20515;-74
2022/11/30 11:15:24;;;;;;;27.60;17.60;;;;;;;;;;5028828;28;20057;-74
2022/11/30 11:17:52;;;;;;;24.13;16.27;;;;;;;;;;5010117;28;20401;-73
2022/11/30 11:20:31;;;;;;;27.30;17.98;;;;;;;;;;5009736;28;20049;-73
2022/11/30 11:22:58;;;;;;;25.58;16.40;;;;;;;;;;4997292;28;20363;-72
2022/11/30 11:25:26;;;;;;;32.63;17.40;;;;;;;;;;5006647;28;20044;-72
2022/11/30 11:27:55;;;;;;;24.42;15.70;;;;;;;;;;5020693;28;20042;-73
2022/11/30 11:30:25;;;;;;;25.20;16.83;;;;;;;;;;5016468;28;20084;-73
2022/11/30 11:33:00;;;;;;;22.88;16.20;;;;;;;;;;5017279;28;20038;-73
2022/11/30 11:35:32;;;;;;;24.25;16.45;;;;;;;;;;5020983;28;20073;-74
2022/11/30 11:38:00;;;;;;;27.00;16.55;;;;;;;;;;5014307;28;20463;-73
2022/11/30 11:40:27;;;;;;;31.83;18.20;;;;;;;;;;5003870;28;20044;-72
2022/11/30 11:42:58;;;;;;;24.17;16.02;;;;;;;;;;5002578;28;20045;-73
2022/11/30 11:45:28;;;;;;;30.38;17.30;;;;;;;;;;5024352;28;20068;-73
2022/11/30 11:48:08;;;;;;;26.45;16.15;;;;;;;;;;5024333;28;20076;-72
2022/11/30 11:50:39;;;;;;;25.33;16.27;;;;;;;;;;5024751;28;20040;-73
2022/11/30 11:53:35;;;;;;;23.13;16.00;;;;;;;;;;5028873;28;20033;-74
2022/11/30 11:56:17;;;;;;;24.77;16.20;;;;;;;;;;5012406;28;20041;-72
2022/11/30 11:58:48;;;;;;;25.05;16.02;;;;;;;;;;4994991;28;20493;-73
2022/11/30 12:01:21;;;;;;;24.47;15.20;;;;;;;;;;5028981;28;20045;-72
2022/11/30 12:04:16;;;;;;;26.88;16.05;;;;;;;;;;5027342;28;20048;-72
2022/11/30 12:06:44;;;;;;;24.30;16.00;;;;;;;;;;5026564;28;20572;-73
2022/11/30 12:09:14;;;;;;;30.33;16.50;;;;;;;;;;5029398;28;20049;-73
2022/11/30 12:11:43;;;;;;;26.02;16.17;;;;;;;;;;5028789;28;20072;-73
2022/11/30 12:14:12;;;;;;;26.85;16.92;;;;;;;;;;5008068;28;20072;-72
2022/11/30 12:16:57;;;;;;;23.08;15.95;;;;;;;;;;5027383;28;20041;-73
2022/11/30 12:19:36;;;;;;;22.75;16.17;;;;;;;;;;5011127;28;20085;-73
2022/11/30 12:22:06;;;;;;;24.50;15.68;;;;;;;;;;5028561;28;20034;-73
2022/11/30 12:24:40;;;;;;;24.27;16.95;;;;;;;;;;5011871;28;20088;-74
2022/11/30 12:27:26;;;;;;;23.85;15.68;;;;;;;;;;5030122;28;20095;-73
2022/11/30 12:30:05;;;;;;;24.67;16.35;;;;;;;;;;5028242;28;20044;-73
2022/11/30 12:32:55;;;;;;;22.65;15.27;;;;;;;;;;5011435;28;20126;-73
2022/11/30 12:35:26;;;;;;;24.48;15.10;;;;;;;;;;5029690;28;20493;-73
2022/11/30 12:37:53;;;;;;;23.83;14.65;;;;;;;;;;5011893;28;20513;-73
2022/11/30 12:40:27;;;;;;;20.35;12.85;;;;;;;;;;5012566;28;20072;-72
2022/11/30 12:43:09;;;;;;;20.67;13.80;;;;;;;;;;4995343;28;20096;-73
2022/11/30 12:45:39;;;;;;;19.17;13.95;;;;;;;;;;5028628;28;20034;-73
2022/11/30 12:48:06;;;;;;;18.52;13.23;;;;;;;;;;5029078;28;20044;-73
2022/11/30 12:50:44;;;;;;;23.08;14.95;;;;;;;;;;5028848;28;20108;-72
2022/11/30 12:53:20;;;;;;;20.48;12.90;;;;;;;;;;5010922;28;20042;-72
2022/11/30 12:55:57;;;;;;;21.38;13.25;;;;;;;;;;5010834;28;20348;-73
2022/11/30 12:58:36;;;;;;;20.30;13.65;;;;;;;;;;5029709;28;20045;-73
2022/11/30 13:01:04;;;;;;;18.15;11.30;;;;;;;;;;5011494;28;20049;-74
2022/11/30 13:03:41;;;;;;;20.40;13.48;;;;;;;;;;5029129;28;20050;-73
2022/11/30 13:06:14;;;;;;;23.52;13.70;;;;;;;;;;5011451;28;20088;-73
2022/11/30 13:08:48;;;;;;;20.45;12.50;;;;;;;;;;5010564;28;20045;-73
2022/11/30 13:11:31;;;;;;;23.63;15.18;;;;;;;;;;5028516;28;20041;-73
2022/11/30 13:13:59;;;;;;;21.05;13.50;;;;;;;;;;5029416;28;20417;-73
2022/11/30 13:16:29;;;;;;;21.40;12.57;;;;;;;;;;5011687;28;20041;-73
2022/11/30 13:19:01;;;;;;;20.25;13.77;;;;;;;;;;5028894;28;20053;-74
2022/11/30 13:21:28;;;;;;;;;;;;;;;;;;5010667;28;20462;-73
2022/11/30 13:24:05;;;;;;;16.35;11.20;;;;;;;;;;5010914;28;20377;-73
2022/11/30 13:26:35;;;;;;;16.83;11.38;;;;;;;;;;5028885;28;20050;-73
2022/11/30 13:29:05;;;;;;;16.65;11.57;;;;;;;;;;5028102;28;20504;-73
2022/11/30 13:31:43;;;;;;;18.92;11.90;;;;;;;;;;5027458;28;20413;-73
2022/11/30 13:34:27;;;;;;;20.38;13.52;;;;;;;;;;5028879;28;20131;-73
2022/11/30 13:37:00;;;;;;;17.65;12.30;;;;;;;;;;5028969;28;20057;-73
2022/11/30 13:39:29;;;;;;;16.13;11.65;;;;;;;;;;5028913;28;20046;-73
2022/11/30 13:42:02;;;;;;;14.80;9.98;;;;;;;;;;5010694;28;20049;-73
2022/11/30 13:44:31;;;;;;;16.58;10.90;;;;;;;;;;5011325;28;20604;-72
2022/11/30 13:46:59;;;;;;;18.05;12.73;;;;;;;;;;5011037;28;20052;-72
2022/11/30 13:49:34;;;;;;;14.60;10.15;;;;;;;;;;5026089;28;20042;-72
2022/11/30 13:52:02;;;;;;;23.83;13.00;;;;;;;;;;5010315;28;20037;-72
2022/11/30 13:54:53;;;;;;;15.73;11.45;;;;;;;;;;5005457;28;20063;-73
2022/11/30 13:57:25;;;;;;;19.40;12.23;;;;;;;;;;4996979;28;20066;-73
2022/11/30 13:59:53;;;;;;;17.67;12.25;;;;;;;;;;5034662;28;20061;-73
2022/11/30 14:02:47;;;;;;;14.10;10.18;;;;;;;;;;5010909;28;20053;-73
2022/11/30 14:05:18;;;;;;;15.52;10.45;;;;;;;;;;5008461;28;20143;-74
2022/11/30 14:07:45;;;;;;;15.05;11.10;;;;;;;;;;5009010;28;20068;-73
2022/11/30 14:10:29;;;;;;;15.77;11.27;;;;;;;;;;5029050;28;20037;-72
2022/11/30 14:13:09;;;;;;;17.33;12.60;;;;;;;;;;5011561;28;20044;-73
2022/11/30 14:15:43;;;;;;;18.63;11.70;;;;;;;;;;5011787;28;20531;-73
2022/11/30 14:18:10;;;;;;;18.02;11.65;;;;;;;;;;5009257;28;20037;-73
2022/11/30 14:20:56;;;;;;;18.05;12.00;;;;;;;;;;5027964;28;20521;-73
2022/11/30 14:23:38;;;;;;;19.20;12.60;;;;;;;;;;5027219;28;20130;-73
2022/11/30 14:26:08;;;;;;;16.98;12.60;;;;;;;;;;5028046;28;20042;-74
2022/11/30 14:28:40;;;;;;;16.85;11.35;;;;;;;;;;5026505;28;20128;-74
2022/11/30 14:31:10;;;;;;;15.40;11.00;;;;;;;;;;5025051;28;20065;-73
2022/11/30 14:33:45;;;;;;;18.05;12.63;;;;;;;;;;5083194;22;20148;-85
2022/11/30 14:36:13;;;;;;;17.13;12.20;;;;;;;;;;5036191;28;20044;-84
2022/11/30 14:38:41;;;;;;;17.30;11.55;;;;;;;;;;5019770;28;20107;-87
2022/11/30 14:41:23;;;;;;;18.08;11.82;;;;;;;;;;5024832;28;20045;-84
2022/11/30 14:44:04;;;;;;;16.55;12.05;;;;;;;;;;5028437;28;20045;-86
2022/11/30 14:46:43;;;;;;;17.35;11.80;;;;;;;;;;5045606;28;20060;-86
2022/11/30 14:49:25;;;;;;;14.68;10.48;;;;;;;;;;4994612;28;20038;-85
2022/11/30 14:52:01;;;;;;;21.35;16.33;;;;;;;;;;5011552;28;20049;-88
2022/11/30 14:54:48;;;;;;;16.02;10.75;;;;;;;;;;5046972;28;20045;-87
2022/11/30 14:57:29;;;;;;;24.08;14.70;;;;;;;;;;5025851;28;20046;-84
2022/11/30 14:59:59;;;;;;;21.38;14.10;;;;;;;;;;5005429;28;20411;-84
2022/11/30 15:02:37;;;;;;;27.02;15.80;;;;;;;;;;5032033;28;20045;-87
2022/11/30 15:05:08;;;;;;;25.60;15.43;;;;;;;;;;4998194;28;20049;-84
2022/11/30 15:07:42;;;;;;;27.33;17.30;;;;;;;;;;5039260;28;20056;-85
2022/11/30 15:10:18;;;;;;;31.55;18.48;;;;;;;;;;4995608;28;20060;-84